Time;durP1;ratioP1;P1;durP2;ratioP2;P2;SDS_P1;SDS_P2;PMS_P1;PMS_P2;Temp;Humidity;BMP_temperature;BMP_pressure;BME280_temperature;BME280_humidity;BME280_pressure;Samples;Min_cycle;Max_cycle;Signal;HPM_P1;HPM_P2
2023/03/03 00:00:17;;;;;;;114.95;37.75;;;1.40;99.90;;;;;;5055512;28;20174;-65
2023/03/03 00:02:43;;;;;;;104.75;38.08;;;1.40;99.90;;;;;;5055565;28;20025;-64
2023/03/03 00:05:09;;;;;;;118.82;39.75;;;1.40;99.90;;;;;;5055484;28;20478;-64
2023/03/03 00:07:34;;;;;;;119.80;37.97;;;1.40;99.90;;;;;;5055124;28;20025;-64
2023/03/03 00:10:00;;;;;;;115.25;38.55;;;1.40;99.90;;;;;;5055274;28;20032;-64
2023/03/03 00:12:28;;;;;;;122.32;39.70;;;1.40;99.90;;;;;;5055256;28;20029;-64
2023/03/03 00:14:54;;;;;;;123.25;39.15;;;1.40;99.90;;;;;;5055266;28;20108;-64
2023/03/03 00:17:24;;;;;;;126.30;41.03;;;1.40;99.90;;;;;;5055278;28;20107;-64
2023/03/03 00:19:50;;;;;;;123.13;36.78;;;1.40;99.90;;;;;;5054730;28;20152;-64
2023/03/03 00:22:28;;;;;;;128.30;39.88;;;1.50;99.90;;;;;;5055156;28;20386;-64
2023/03/03 00:24:54;;;;;;;120.05;39.05;;;1.40;99.90;;;;;;5055222;28;20032;-64
2023/03/03 00:27:33;;;;;;;120.28;39.70;;;1.50;99.90;;;;;;5055195;28;20027;-64
2023/03/03 00:29:59;;;;;;;123.05;38.17;;;1.40;99.90;;;;;;5053953;28;20032;-64
2023/03/03 00:32:46;;;;;;;121.50;41.17;;;1.40;99.90;;;;;;5053750;28;20029;-64
2023/03/03 00:35:25;;;;;;;128.27;40.00;;;1.40;99.90;;;;;;5054711;28;20376;-64
2023/03/03 00:37:56;;;;;;;125.10;39.60;;;1.40;99.90;;;;;;5054997;28;20394;-64
2023/03/03 00:40:34;;;;;;;122.63;40.17;;;1.40;99.90;;;;;;5054794;28;20119;-64
2023/03/03 00:43:10;;;;;;;119.95;38.88;;;1.40;99.90;;;;;;5054317;28;20430;-64
2023/03/03 00:45:45;;;;;;;125.28;40.20;;;1.40;99.90;;;;;;5054402;28;20025;-64
2023/03/03 00:48:27;;;;;;;114.05;37.78;;;1.40;99.90;;;;;;5054535;28;20415;-64
2023/03/03 00:50:56;;;;;;;117.20;38.20;;;1.40;99.90;;;;;;5054574;28;20036;-64
2023/03/03 00:53:23;;;;;;;116.65;36.40;;;1.40;99.90;;;;;;5054430;28;20060;-64
2023/03/03 00:55:50;;;;;;;112.53;37.00;;;1.50;99.90;;;;;;5054469;28;20028;-64
2023/03/03 00:58:17;;;;;;;115.70;40.15;;;1.50;99.90;;;;;;5054417;28;20033;-64
2023/03/03 01:00:43;;;;;;;107.47;35.47;;;1.50;99.90;;;;;;5054365;28;20128;-64
2023/03/03 01:03:13;;;;;;;109.53;37.28;;;1.50;99.90;;;;;;5054416;28;20025;-64
2023/03/03 01:05:39;;;;;;;108.45;35.97;;;1.50;99.90;;;;;;5054354;28;20170;-64
2023/03/03 01:08:05;;;;;;;107.82;38.67;;;1.50;99.90;;;;;;5054020;28;20108;-64
2023/03/03 01:10:34;;;;;;;102.55;36.20;;;1.50;99.90;;;;;;5053912;28;20037;-64
2023/03/03 01:13:00;;;;;;;104.97;35.72;;;1.50;99.90;;;;;;5054347;28;20032;-64
2023/03/03 01:15:26;;;;;;;94.05;34.83;;;1.50;99.90;;;;;;5054238;28;20033;-64
2023/03/03 01:17:51;;;;;;;94.05;34.25;;;1.40;99.90;;;;;;5054078;28;20040;-64
2023/03/03 01:20:17;;;;;;;99.95;34.80;;;1.40;99.90;;;;;;5053723;28;20515;-64
2023/03/03 01:22:43;;;;;;;87.40;34.05;;;1.40;99.90;;;;;;5054063;28;20100;-64
2023/03/03 01:25:09;;;;;;;86.85;31.27;;;1.40;99.90;;;;;;5053988;28;20501;-64
2023/03/03 01:27:35;;;;;;;87.30;31.70;;;1.40;99.90;;;;;;5053987;28;20143;-64
2023/03/03 01:30:02;;;;;;;88.53;33.03;;;1.40;99.90;;;;;;5053687;28;20124;-64
2023/03/03 01:32:28;;;;;;;85.05;31.52;;;1.40;99.90;;;;;;5053965;28;20111;-64
2023/03/03 01:34:54;;;;;;;93.05;33.13;;;1.40;99.90;;;;;;5053737;28;20538;-64
2023/03/03 01:37:20;;;;;;;88.88;32.53;;;1.40;99.90;;;;;;5053854;28;20029;-65
2023/03/03 01:39:49;;;;;;;87.75;32.92;;;1.40;99.90;;;;;;5053822;28;20429;-64
2023/03/03 01:42:14;;;;;;;89.72;32.25;;;1.40;99.90;;;;;;5053630;28;20021;-64
2023/03/03 01:44:40;;;;;;;79.50;31.25;;;1.40;99.90;;;;;;5053689;28;20356;-64
2023/03/03 01:47:27;;;;;;;80.28;31.75;;;1.40;99.90;;;;;;5053634;28;20079;-64
2023/03/03 01:50:02;;;;;;;87.18;31.58;;;1.40;99.90;;;;;;5053606;28;20513;-64
2023/03/03 01:52:36;;;;;;;75.32;27.95;;;1.40;99.90;;;;;;5053406;28;20021;-64
2023/03/03 01:55:08;;;;;;;81.35;30.92;;;1.40;99.90;;;;;;5053334;28;20024;-64
2023/03/03 01:57:39;;;;;;;80.18;31.75;;;1.40;99.90;;;;;;5053304;28;20078;-64
2023/03/03 02:00:05;;;;;;;78.82;31.17;;;1.30;99.90;;;;;;5051882;28;20475;-64
2023/03/03 02:02:31;;;;;;;81.78;31.58;;;1.40;99.90;;;;;;5053117;28;20383;-64
2023/03/03 02:04:57;;;;;;;71.68;29.48;;;1.30;99.90;;;;;;5053435;28;20033;-64
2023/03/03 02:07:26;;;;;;;74.95;28.20;;;1.40;99.90;;;;;;5053264;28;20033;-64
2023/03/03 02:10:12;;;;;;;77.30;29.15;;;1.30;99.90;;;;;;5053455;28;20021;-65
2023/03/03 02:12:51;;;;;;;78.55;31.17;;;1.40;99.90;;;;;;5053122;28;20132;-64
2023/03/03 02:15:24;;;;;;;83.07;32.75;;;1.40;99.90;;;;;;5053412;28;20116;-64
2023/03/03 02:17:52;;;;;;;;;;;1.40;99.90;;;;;;5053513;28;20029;-64
2023/03/03 02:20:31;;;;;;;68.20;27.30;;;1.40;99.90;;;;;;5053042;28;19970;-64
2023/03/03 02:23:05;;;;;;;82.07;30.30;;;1.40;99.90;;;;;;5052920;28;20028;-64
2023/03/03 02:25:41;;;;;;;78.70;28.75;;;1.40;99.90;;;;;;5052972;28;20039;-64
2023/03/03 02:28:07;;;;;;;80.03;30.60;;;1.40;99.90;;;;;;5053160;28;20495;-64
2023/03/03 02:30:37;;;;;;;84.47;30.50;;;1.40;99.90;;;;;;5053230;28;20112;-64
2023/03/03 02:33:03;;;;;;;84.28;31.52;;;1.40;99.90;;;;;;5052936;28;20028;-64
2023/03/03 02:35:33;;;;;;;93.22;33.45;;;1.30;99.90;;;;;;5052948;28;20487;-64
2023/03/03 02:38:08;;;;;;;109.70;36.63;;;1.40;99.90;;;;;;5053136;28;20546;-64
2023/03/03 02:40:39;;;;;;;110.60;34.65;;;1.40;99.90;;;;;;5052807;28;20117;-64
2023/03/03 02:43:08;;;;;;;98.85;34.33;;;1.30;99.90;;;;;;5052821;28;20029;-64
2023/03/03 02:45:33;;;;;;;107.40;35.75;;;1.40;99.90;;;;;;5052840;28;20036;-64
2023/03/03 02:47:59;;;;;;;107.68;36.08;;;1.40;99.90;;;;;;5053014;28;20025;-64
2023/03/03 02:50:24;;;;;;;116.25;37.80;;;1.40;99.90;;;;;;5052996;28;20041;-64
2023/03/03 02:52:50;;;;;;;110.45;38.20;;;1.40;99.90;;;;;;5052661;28;20102;-64
2023/03/03 02:55:15;;;;;;;115.90;36.65;;;1.40;99.90;;;;;;5052915;28;20029;-64
2023/03/03 02:57:41;;;;;;;132.82;41.22;;;1.40;99.90;;;;;;5052759;28;20032;-64
2023/03/03 03:00:07;;;;;;;129.93;39.22;;;1.40;99.90;;;;;;5052627;28;20037;-64
2023/03/03 03:02:33;;;;;;;124.18;39.38;;;1.40;99.90;;;;;;5052691;28;20483;-64
2023/03/03 03:04:58;;;;;;;116.93;35.83;;;1.50;99.90;;;;;;5052882;28;20051;-64
2023/03/03 03:07:24;;;;;;;115.40;35.95;;;1.40;99.90;;;;;;5054326;28;20029;-64
2023/03/03 03:09:49;;;;;;;114.78;38.13;;;1.40;99.90;;;;;;5056530;28;20079;-65
2023/03/03 03:12:18;;;;;;;116.05;38.45;;;1.40;99.90;;;;;;5056643;28;20028;-64
2023/03/03 03:14:43;;;;;;;121.13;37.63;;;1.40;99.90;;;;;;5056351;28;20021;-65
2023/03/03 03:17:10;;;;;;;114.93;38.10;;;1.40;99.90;;;;;;5056441;28;20120;-64
2023/03/03 03:19:36;;;;;;;97.55;35.28;;;1.40;99.90;;;;;;5056168;28;20388;-65
2023/03/03 03:22:01;;;;;;;85.72;31.13;;;1.40;99.90;;;;;;5056088;28;20111;-64
2023/03/03 03:24:27;;;;;;;84.45;30.05;;;1.40;99.90;;;;;;5055969;28;20509;-64
2023/03/03 03:26:52;;;;;;;86.78;30.23;;;1.40;99.90;;;;;;5056111;28;20017;-64
2023/03/03 03:29:17;;;;;;;80.15;28.25;;;1.30;99.90;;;;;;5056311;28;20033;-64
2023/03/03 03:31:43;;;;;;;80.10;28.63;;;1.30;99.90;;;;;;5056191;28;20036;-64
2023/03/03 03:34:09;;;;;;;77.50;27.92;;;1.30;99.90;;;;;;5055804;28;20064;-64
2023/03/03 03:36:34;;;;;;;80.28;28.17;;;1.30;99.90;;;;;;5055929;28;20068;-64
2023/03/03 03:39:01;;;;;;;74.47;27.50;;;1.30;99.90;;;;;;5056058;28;20087;-64
2023/03/03 03:41:27;;;;;;;77.68;29.05;;;1.30;99.90;;;;;;5055809;28;20733;-64
2023/03/03 03:43:52;;;;;;;73.95;27.77;;;1.30;99.90;;;;;;5056020;28;20017;-64
2023/03/03 03:46:18;;;;;;;71.05;27.08;;;1.30;99.90;;;;;;5055885;28;20025;-64
2023/03/03 03:48:45;;;;;;;69.00;28.77;;;;;;;;;;5055865;28;20387;-64
2023/03/03 03:51:11;;;;;;;69.90;26.95;;;1.20;99.90;;;;;;5055729;28;20478;-64
2023/03/03 03:53:36;;;;;;;73.90;29.15;;;1.20;99.90;;;;;;5055724;28;20083;-64
2023/03/03 03:56:02;;;;;;;69.72;25.70;;;1.10;99.90;;;;;;5055823;28;20040;-64
2023/03/03 03:58:28;;;;;;;74.32;28.95;;;1.20;99.90;;;;;;5055550;28;20494;-64
2023/03/03 04:00:54;;;;;;;73.05;27.95;;;1.20;99.90;;;;;;5055423;28;20025;-64
2023/03/03 04:03:20;;;;;;;69.90;27.20;;;1.20;99.90;;;;;;5055556;28;20024;-65
2023/03/03 04:05:46;;;;;;;77.93;29.27;;;1.20;99.90;;;;;;5055469;28;20029;-64
2023/03/03 04:08:12;;;;;;;81.43;30.27;;;1.20;99.90;;;;;;5055450;28;20059;-64
2023/03/03 04:10:38;;;;;;;75.82;28.65;;;1.20;99.90;;;;;;5055474;28;20067;-64
2023/03/03 04:13:03;;;;;;;70.80;28.60;;;1.20;99.90;;;;;;5055046;28;20471;-64
2023/03/03 04:15:29;;;;;;;81.40;28.70;;;1.20;99.90;;;;;;5055483;28;20029;-64
2023/03/03 04:17:54;;;;;;;79.72;29.02;;;1.10;99.90;;;;;;5055226;28;20089;-64
2023/03/03 04:20:20;;;;;;;83.63;29.25;;;1.10;99.90;;;;;;5054988;28;20061;-64
2023/03/03 04:22:46;;;;;;;85.22;28.55;;;1.10;99.90;;;;;;5055325;28;20040;-64
2023/03/03 04:25:14;;;;;;;81.60;28.80;;;1.10;99.90;;;;;;5055019;28;20399;-64
2023/03/03 04:27:40;;;;;;;84.00;29.17;;;1.10;99.90;;;;;;5055155;28;20364;-64
2023/03/03 04:30:06;;;;;;;84.32;30.23;;;1.10;99.90;;;;;;5055172;28;20090;-64
2023/03/03 04:32:32;;;;;;;82.68;30.45;;;1.10;99.90;;;;;;5055077;28;20040;-64
2023/03/03 04:34:58;;;;;;;92.45;30.95;;;1.10;99.90;;;;;;5055068;28;20028;-64
2023/03/03 04:37:24;;;;;;;84.82;31.25;;;1.00;99.90;;;;;;5055041;28;20037;-64
2023/03/03 04:39:49;;;;;;;83.75;28.67;;;1.00;99.90;;;;;;5054800;28;20083;-64
2023/03/03 04:42:15;;;;;;;80.25;30.27;;;1.00;99.90;;;;;;5054768;28;20017;-64
2023/03/03 04:44:40;;;;;;;79.55;28.75;;;1.10;99.90;;;;;;5054619;28;20029;-64
2023/03/03 04:47:06;;;;;;;78.80;29.25;;;1.00;99.90;;;;;;5054756;28;20107;-64
2023/03/03 04:49:31;;;;;;;83.40;29.88;;;1.00;99.90;;;;;;5054571;28;20029;-64
2023/03/03 04:51:57;;;;;;;86.72;30.88;;;1.00;99.90;;;;;;5054768;28;20033;-64
2023/03/03 04:54:23;;;;;;;79.28;28.83;;;1.00;99.90;;;;;;5054756;28;20035;-64
2023/03/03 04:56:48;;;;;;;85.18;29.17;;;1.00;99.90;;;;;;5054633;28;20115;-64
2023/03/03 04:59:14;;;;;;;80.82;29.83;;;1.00;99.90;;;;;;5054359;28;20036;-64
2023/03/03 05:01:40;;;;;;;81.80;28.45;;;1.00;99.90;;;;;;5054171;28;20036;-64
2023/03/03 05:04:06;;;;;;;80.65;27.98;;;1.00;99.90;;;;;;5054007;28;20029;-64
2023/03/03 05:06:31;;;;;;;71.70;27.20;;;1.00;99.90;;;;;;5054262;28;20099;-64
2023/03/03 05:08:57;;;;;;;79.93;28.30;;;1.00;99.90;;;;;;5054413;28;20043;-64
2023/03/03 05:11:22;;;;;;;79.68;29.08;;;1.00;99.90;;;;;;5054310;28;20483;-64
2023/03/03 05:13:48;;;;;;;85.32;30.77;;;1.00;99.90;;;;;;5054433;28;20033;-64
2023/03/03 05:16:14;;;;;;;85.72;29.27;;;0.90;99.90;;;;;;5054190;28;20047;-65
2023/03/03 05:18:39;;;;;;;74.47;27.63;;;1.00;99.90;;;;;;5054090;28;20036;-65
2023/03/03 05:21:05;;;;;;;78.38;28.23;;;1.00;99.90;;;;;;5053482;28;20493;-64
2023/03/03 05:23:30;;;;;;;76.57;28.70;;;1.00;99.90;;;;;;5054146;28;20060;-64
2023/03/03 05:25:56;;;;;;;89.85;29.92;;;1.00;99.90;;;;;;5054111;28;20032;-64
2023/03/03 05:28:22;;;;;;;84.97;28.60;;;1.00;99.90;;;;;;5054027;28;20083;-66
2023/03/03 05:30:48;;;;;;;78.38;28.15;;;1.00;99.90;;;;;;5053475;28;20108;-64
2023/03/03 05:33:15;;;;;;;79.93;28.73;;;1.00;99.90;;;;;;5053699;28;20033;-64
2023/03/03 05:35:40;;;;;;;87.47;30.70;;;1.00;99.90;;;;;;5053850;28;20032;-64
2023/03/03 05:38:06;;;;;;;84.07;29.27;;;1.00;99.90;;;;;;5053626;28;20025;-64
2023/03/03 05:40:32;;;;;;;86.63;30.10;;;1.00;99.90;;;;;;5053566;28;20086;-64
2023/03/03 05:42:57;;;;;;;80.07;27.33;;;1.00;99.90;;;;;;5053804;28;20040;-64
2023/03/03 05:45:23;;;;;;;86.40;30.48;;;1.10;99.90;;;;;;5053403;28;20021;-64
2023/03/03 05:47:50;;;;;;;86.20;27.52;;;1.00;99.90;;;;;;5053736;28;20036;-65
2023/03/03 05:50:16;;;;;;;78.35;29.02;;;1.10;99.90;;;;;;5053427;28;20479;-65
2023/03/03 05:52:42;;;;;;;84.63;29.40;;;1.20;99.90;;;;;;5053389;28;20107;-65
2023/03/03 05:55:08;;;;;;;79.47;26.73;;;1.10;99.90;;;;;;5053470;28;20055;-65
2023/03/03 05:57:34;;;;;;;82.03;28.95;;;1.20;99.90;;;;;;5053607;28;20025;-65
2023/03/03 06:00:03;;;;;;;77.60;27.10;;;1.10;99.90;;;;;;5053038;28;20086;-65
2023/03/03 06:02:28;;;;;;;80.90;27.23;;;1.10;99.90;;;;;;5053278;28;20017;-65
2023/03/03 06:04:54;;;;;;;82.28;26.48;;;1.00;99.90;;;;;;5053393;28;20086;-65
2023/03/03 06:07:19;;;;;;;88.80;29.52;;;1.10;99.90;;;;;;5053290;28;20021;-64
2023/03/03 06:09:45;;;;;;;82.75;28.15;;;1.10;99.90;;;;;;5053119;28;20492;-65
2023/03/03 06:12:10;;;;;;;86.90;28.67;;;1.10;99.90;;;;;;5053246;28;20061;-65
2023/03/03 06:14:36;;;;;;;86.70;27.83;;;1.10;99.90;;;;;;5053305;28;20383;-65
2023/03/03 06:17:02;;;;;;;85.72;29.63;;;1.10;99.90;;;;;;5053149;28;20118;-65
2023/03/03 06:19:27;;;;;;;98.68;31.50;;;1.10;99.90;;;;;;5053239;28;20036;-65
2023/03/03 06:21:53;;;;;;;108.47;33.63;;;1.10;99.90;;;;;;5052821;28;20049;-65
2023/03/03 06:24:19;;;;;;;99.50;32.47;;;1.20;99.90;;;;;;5053106;28;20029;-64
2023/03/03 06:26:44;;;;;;;101.30;33.55;;;1.20;99.90;;;;;;5033228;28;20037;-65
2023/03/03 06:29:10;;;;;;;102.15;31.85;;;1.20;99.90;;;;;;5033076;28;20032;-65
2023/03/03 06:31:35;;;;;;;95.32;30.65;;;1.20;99.90;;;;;;5033139;28;20026;-65
2023/03/03 06:34:01;;;;;;;95.60;30.52;;;1.20;99.90;;;;;;5033028;28;20369;-65
2023/03/03 06:36:27;;;;;;;97.75;29.95;;;1.20;99.90;;;;;;5032999;28;20069;-65
2023/03/03 06:38:52;;;;;;;89.40;29.77;;;1.20;99.90;;;;;;5033243;28;20032;-65
2023/03/03 06:41:18;;;;;;;90.90;27.73;;;1.10;99.90;;;;;;5032966;28;20044;-65
2023/03/03 06:43:43;;;;;;;85.00;27.67;;;1.10;99.90;;;;;;5036889;28;20033;-65
2023/03/03 06:46:09;;;;;;;96.55;28.98;;;1.00;99.90;;;;;;5037107;28;20068;-65
2023/03/03 06:48:34;;;;;;;100.63;29.48;;;1.00;99.90;;;;;;5037075;28;20068;-64
2023/03/03 06:51:02;;;;;;;104.97;31.75;;;1.00;99.90;;;;;;5037092;28;20021;-65
2023/03/03 06:53:30;;;;;;;101.60;30.20;;;1.00;99.90;;;;;;5036680;28;20033;-65
2023/03/03 06:55:57;;;;;;;104.47;31.92;;;1.10;99.90;;;;;;5036504;28;20480;-65
2023/03/03 06:58:23;;;;;;;100.15;28.90;;;1.00;99.90;;;;;;5036874;28;20029;-66
2023/03/03 07:00:56;;;;;;;113.03;32.38;;;1.00;99.90;;;;;;5036665;28;20399;-65
2023/03/03 07:03:28;;;;;;;107.20;31.15;;;1.00;99.90;;;;;;5036331;28;20475;-64
2023/03/03 07:05:54;;;;;;;106.25;31.15;;;1.10;99.90;;;;;;5036637;28;20442;-65
2023/03/03 07:08:22;;;;;;;110.22;32.88;;;1.10;99.90;;;;;;5036326;28;20048;-64
2023/03/03 07:10:49;;;;;;;112.43;32.28;;;1.20;99.90;;;;;;5036632;28;20037;-64
2023/03/03 07:13:25;;;;;;;118.50;31.65;;;1.20;99.90;;;;;;5036391;28;20391;-64
2023/03/03 07:15:52;;;;;;;130.88;34.53;;;1.20;99.90;;;;;;5036238;28;20025;-64
2023/03/03 07:18:49;;;;;;;134.10;34.55;;;1.20;99.90;;;;;;5036435;28;20041;-65
2023/03/03 07:21:29;;;;;;;118.88;33.15;;;1.20;99.90;;;;;;5035924;28;20099;-63
2023/03/03 07:23:56;;;;;;;136.45;35.80;;;1.20;99.90;;;;;;5036340;28;20030;-63
2023/03/03 07:26:29;;;;;;;134.35;34.25;;;1.30;99.90;;;;;;5036319;28;20034;-63
2023/03/03 07:28:57;;;;;;;;;;;1.20;99.90;;;;;;5035497;28;20083;-64
2023/03/03 07:31:45;;;;;;;117.82;33.45;;;1.20;99.90;;;;;;5036131;28;19905;-63
2023/03/03 07:34:21;;;;;;;117.60;32.38;;;1.10;99.90;;;;;;5036018;28;20144;-63
2023/03/03 07:36:48;;;;;;;112.45;33.47;;;1.20;99.90;;;;;;5034746;28;20491;-63
2023/03/03 07:39:35;;;;;;;100.35;29.52;;;1.10;99.90;;;;;;5036155;28;20079;-63
2023/03/03 07:42:22;;;;;;;97.85;29.77;;;1.10;99.90;;;;;;5035734;28;20025;-63
2023/03/03 07:44:53;;;;;;;104.85;28.83;;;1.10;99.90;;;;;;5035814;28;20398;-63
2023/03/03 07:47:23;;;;;;;104.82;29.90;;;1.10;99.90;;;;;;5035758;28;20018;-63
2023/03/03 07:49:50;;;;;;;95.57;27.25;;;1.10;99.90;;;;;;5034408;28;20018;-63
2023/03/03 07:52:25;;;;;;;95.25;28.58;;;1.20;99.90;;;;;;5035342;28;20025;-63
2023/03/03 07:54:52;;;;;;;99.53;28.77;;;1.20;99.90;;;;;;5035580;28;20080;-63
2023/03/03 07:57:38;;;;;;;88.57;26.40;;;1.20;99.90;;;;;;5035621;28;20059;-63
2023/03/03 08:03:03;;;;;;;78.80;24.55;;;1.20;99.90;;;;;;5111173;27;20930;-63
2023/03/03 08:05:34;;;;;;;96.93;28.00;;;1.20;99.90;;;;;;5110691;28;20039;-63
2023/03/03 08:08:28;;;;;;;87.03;25.55;;;1.20;99.90;;;;;;5110843;28;20485;-63
2023/03/03 08:10:56;;;;;;;94.65;27.92;;;1.30;99.90;;;;;;5110840;28;20024;-64
2023/03/03 08:13:27;;;;;;;90.05;25.90;;;1.30;99.90;;;;;;5110843;28;20034;-63
2023/03/03 08:16:16;;;;;;;94.35;28.25;;;1.30;99.90;;;;;;5110863;28;20030;-64
2023/03/03 08:18:46;;;;;;;93.35;27.70;;;1.30;99.90;;;;;;5110817;28;20034;-63
2023/03/03 08:21:15;;;;;;;81.10;24.80;;;1.30;99.90;;;;;;5110530;28;20032;-63
2023/03/03 08:23:41;;;;;;;90.97;27.08;;;1.20;99.90;;;;;;5110736;28;20020;-63
2023/03/03 08:26:07;;;;;;;82.68;27.00;;;1.30;99.90;;;;;;5110773;28;20028;-63
2023/03/03 08:28:33;;;;;;;88.30;25.92;;;1.30;99.90;;;;;;5110640;28;20020;-63
2023/03/03 08:30:58;;;;;;;83.63;24.65;;;1.30;99.90;;;;;;5110604;28;20056;-63
2023/03/03 08:33:24;;;;;;;83.28;24.67;;;1.30;99.90;;;;;;5109465;28;20028;-63
2023/03/03 08:35:49;;;;;;;82.20;24.95;;;1.40;99.90;;;;;;5110696;28;20081;-63
2023/03/03 08:38:18;;;;;;;83.47;26.63;;;1.40;99.90;;;;;;5110375;28;20020;-63
2023/03/03 08:40:45;;;;;;;82.50;24.02;;;1.50;99.90;;;;;;5110242;28;20028;-63
2023/03/03 08:43:15;;;;;;;78.43;23.52;;;1.50;99.90;;;;;;5110371;28;20031;-62
2023/03/03 08:45:43;;;;;;;67.90;22.13;;;1.50;99.90;;;;;;5110332;28;20027;-63
2023/03/03 08:48:09;;;;;;;66.85;21.25;;;1.50;99.90;;;;;;5110477;28;20032;-63
2023/03/03 08:50:34;;;;;;;75.10;22.80;;;1.50;99.90;;;;;;5110106;28;20031;-63
2023/03/03 08:53:00;;;;;;;66.72;21.48;;;1.60;99.90;;;;;;5110349;28;20039;-63
2023/03/03 08:55:26;;;;;;;58.08;20.10;;;1.60;99.90;;;;;;5110143;28;20079;-63
2023/03/03 08:57:51;;;;;;;67.10;21.10;;;1.50;99.90;;;;;;5110202;28;20053;-63
2023/03/03 09:00:18;;;;;;;73.35;22.30;;;1.70;99.90;;;;;;5109977;28;20019;-63
2023/03/03 09:02:43;;;;;;;77.88;21.58;;;1.70;99.90;;;;;;5109764;28;20072;-63
2023/03/03 09:05:10;;;;;;;66.57;22.20;;;1.70;99.90;;;;;;5110037;28;20028;-63
2023/03/03 09:07:37;;;;;;;67.80;22.13;;;1.70;99.90;;;;;;5109633;28;20024;-63
2023/03/03 09:10:03;;;;;;;67.75;21.30;;;1.90;99.90;;;;;;5109707;28;20504;-63
2023/03/03 09:12:41;;;;;;;68.82;22.88;;;1.90;99.90;;;;;;5106429;28;20544;-63
2023/03/03 09:17:52;;;;;;;89.07;26.60;;;1.90;99.90;;;;;;5110939;27;20380;-63
2023/03/03 09:20:37;;;;;;;79.00;24.55;;;1.90;99.90;;;;;;5110972;28;20031;-63
2023/03/03 09:23:40;;;;;;;85.78;25.10;;;1.90;99.90;;;;;;5111020;28;20028;-63
2023/03/03 09:28:50;;;;;;;77.38;21.95;;;1.90;99.90;;;;;;5111111;27;20380;-63
2023/03/03 09:31:24;;;;;;;68.53;20.98;;;1.80;99.90;;;;;;5111181;28;20042;-63
2023/03/03 09:33:50;;;;;;;69.65;21.60;;;1.80;99.90;;;;;;5110961;28;20434;-63
2023/03/03 09:36:25;;;;;;;63.47;20.98;;;1.90;99.90;;;;;;5110930;28;20043;-64
2023/03/03 09:38:51;;;;;;;64.35;20.02;;;1.90;99.90;;;;;;5111125;28;20035;-63
2023/03/03 09:44:30;;;;;;;70.28;22.65;;;1.90;99.90;;;;;;5111038;27;20742;-63
2023/03/03 09:47:22;;;;;;;70.50;22.70;;;1.80;99.90;;;;;;5111016;28;20036;-63
2023/03/03 09:50:09;;;;;;;71.07;22.77;;;1.90;99.90;;;;;;5111178;28;20039;-63
2023/03/03 09:52:45;;;;;;;68.95;22.45;;;1.90;99.90;;;;;;5111000;28;20020;-63
2023/03/03 09:55:29;;;;;;;75.55;22.08;;;1.90;99.90;;;;;;5111050;28;20396;-63
2023/03/03 09:58:20;;;;;;;69.60;21.17;;;1.90;99.90;;;;;;5110951;28;20020;-63
2023/03/03 10:01:11;;;;;;;69.35;22.15;;;2.00;99.90;;;;;;5110519;28;20038;-63
2023/03/03 10:04:07;;;;;;;64.28;20.98;;;2.00;99.90;;;;;;5110417;28;20439;-63
2023/03/03 10:06:42;;;;;;;72.43;20.52;;;2.20;99.90;;;;;;5110678;28;20059;-65
2023/03/03 10:09:39;;;;;;;61.78;19.92;;;2.30;99.90;;;;;;5110645;28;20508;-63
2023/03/03 10:12:16;;;;;;;60.90;19.83;;;2.30;99.90;;;;;;5110524;28;20434;-63
2023/03/03 10:14:57;;;;;;;65.32;19.92;;;2.20;99.90;;;;;;5110715;28;20024;-63
2023/03/03 10:17:46;;;;;;;57.53;18.33;;;2.30;99.90;;;;;;5110640;28;20024;-64
2023/03/03 10:23:19;;;;;;;63.17;21.27;;;2.50;99.90;;;;;;5070419;28;20382;-64
2023/03/03 10:26:00;;;;;;;58.28;19.60;;;2.50;99.90;;;;;;5069505;28;20033;-64
2023/03/03 10:28:53;;;;;;;56.78;18.02;;;2.40;99.90;;;;;;5070402;28;20558;-64
2023/03/03 10:31:33;;;;;;;64.97;19.60;;;2.40;99.90;;;;;;5070301;28;20371;-64
2023/03/03 10:34:31;;;;;;;59.15;19.77;;;2.60;99.90;;;;;;5070256;28;20119;-64
2023/03/03 10:37:07;;;;;;;59.97;20.30;;;2.70;99.90;;;;;;5070242;28;20033;-65
2023/03/03 10:40:09;;;;;;;60.75;20.05;;;2.90;99.90;;;;;;5070409;28;20443;-64
2023/03/03 10:43:15;;;;;;;64.75;20.15;;;2.80;99.90;;;;;;5069940;28;20025;-64
2023/03/03 10:46:07;;;;;;;56.72;19.73;;;2.90;99.90;;;;;;5070210;28;20075;-64
2023/03/03 10:49:13;;;;;;;62.10;20.53;;;2.90;99.90;;;;;;5070034;28;20020;-64
2023/03/03 10:51:54;;;;;;;64.47;21.27;;;3.00;99.90;;;;;;5069951;28;20057;-64
2023/03/03 10:54:48;;;;;;;59.45;19.70;;;2.90;99.90;;;;;;5069686;28;20422;-64
2023/03/03 10:57:21;;;;;;;61.35;22.20;;;3.10;99.90;;;;;;5069878;28;20525;-64
2023/03/03 11:00:15;;;;;;;64.05;19.92;;;3.20;99.90;;;;;;5070048;28;20398;-64
2023/03/03 11:02:58;;;;;;;60.17;20.35;;;3.10;99.90;;;;;;5069589;28;20032;-64
2023/03/03 11:05:51;;;;;;;60.17;21.15;;;3.10;99.90;;;;;;5069663;28;20476;-64
2023/03/03 11:08:29;;;;;;;63.97;21.33;;;3.30;99.90;;;;;;5069565;28;20482;-64
2023/03/03 11:11:11;;;;;;;65.30;22.58;;;3.40;99.90;;;;;;5069675;28;20029;-64
2023/03/03 11:13:50;;;;;;;63.63;24.30;;;3.60;99.90;;;;;;5069515;28;20441;-64
2023/03/03 11:16:46;;;;;;;64.70;22.83;;;3.80;99.90;;;;;;5069648;28;20471;-64
2023/03/03 11:19:27;;;;;;;66.63;22.98;;;3.80;99.90;;;;;;5069248;28;20482;-64
2023/03/03 11:22:17;;;;;;;67.00;21.25;;;3.40;99.90;;;;;;5068995;28;20052;-64
2023/03/03 11:25:02;;;;;;;67.15;22.98;;;3.50;99.90;;;;;;5069179;28;20032;-64
2023/03/03 11:28:01;;;;;;;61.13;21.23;;;3.60;99.90;;;;;;5069167;28;20401;-64
2023/03/03 11:30:53;;;;;;;65.45;20.73;;;3.60;99.90;;;;;;5069125;28;20060;-64
2023/03/03 11:33:26;;;;;;;58.90;20.73;;;3.70;99.90;;;;;;5061043;28;20029;-64
2023/03/03 11:36:26;;;;;;;60.88;21.83;;;3.60;99.90;;;;;;5056021;28;20410;-64
2023/03/03 11:41:42;;;;;;;65.20;21.02;;;3.80;99.90;;;;;;5111082;27;20350;-64
2023/03/03 11:44:47;;;;;;;66.75;22.08;;;3.90;99.90;;;;;;5111063;28;20546;-64
2023/03/03 11:47:25;;;;;;;53.08;18.83;;;4.10;99.90;;;;;;5110535;28;20162;-63
2023/03/03 11:50:01;;;;;;;58.20;19.33;;;4.20;99.90;;;;;;5110862;28;20385;-63
2023/03/03 11:52:54;;;;;;;57.42;19.65;;;4.20;99.90;;;;;;5110743;28;20110;-63
2023/03/03 11:55:38;;;;;;;64.57;20.65;;;4.50;99.90;;;;;;5110734;28;20115;-63
2023/03/03 11:58:17;;;;;;;55.88;19.77;;;4.40;99.90;;;;;;5110725;28;20024;-63
2023/03/03 12:01:13;;;;;;;53.90;19.70;;;4.20;99.90;;;;;;5109482;28;20538;-63
2023/03/03 12:03:51;;;;;;;47.53;17.02;;;4.40;99.90;;;;;;5110862;28;20028;-63
2023/03/03 12:06:46;;;;;;;47.70;17.15;;;4.60;99.90;;;;;;5110800;28;20103;-64
2023/03/03 12:09:19;;;;;;;55.80;19.75;;;4.50;99.90;;;;;;5110436;28;20077;-63
2023/03/03 12:11:52;;;;;;;57.13;21.13;;;4.70;99.90;;;;;;5110374;28;20031;-64
2023/03/03 12:14:45;;;;;;;54.90;18.55;;;4.50;99.90;;;;;;5110418;28;20059;-64
2023/03/03 12:17:34;;;;;;;56.55;20.27;;;4.90;99.90;;;;;;5110525;28;20028;-64
2023/03/03 12:20:24;;;;;;;59.15;19.60;;;4.60;99.90;;;;;;5110061;28;20502;-64
2023/03/03 12:23:15;;;;;;;51.58;18.33;;;4.60;99.90;;;;;;5110227;28;20385;-64
2023/03/03 12:25:45;;;;;;;58.92;20.75;;;4.80;99.90;;;;;;5110249;28;20024;-64
2023/03/03 12:28:36;;;;;;;56.45;19.42;;;4.60;99.90;;;;;;5110086;28;20024;-64
2023/03/03 12:31:27;;;;;;;49.33;17.88;;;4.50;99.90;;;;;;5110162;28;20023;-64
2023/03/03 12:34:02;;;;;;;59.80;19.90;;;4.90;99.90;;;;;;5109727;28;20062;-64
2023/03/03 12:36:52;;;;;;;53.08;20.00;;;5.20;99.90;;;;;;5110263;27;20059;-64
2023/03/03 12:39:44;;;;;;;56.28;20.25;;;5.50;99.90;;;;;;5109803;28;20028;-64
2023/03/03 12:42:37;;;;;;;54.70;20.35;;;5.60;99.90;;;;;;5110102;28;20385;-64
2023/03/03 12:45:42;;;;;;;61.33;21.05;;;5.50;99.90;;;;;;5109671;28;20131;-64
2023/03/03 12:48:20;;;;;;;56.63;19.75;;;5.90;99.90;;;;;;5109709;28;20031;-64
2023/03/03 12:51:16;;;;;;;55.22;20.30;;;6.20;99.90;;;;;;5109201;28;20024;-64
2023/03/03 12:53:51;;;;;;;50.25;18.90;;;6.40;99.90;;;;;;5096014;28;20035;-64
2023/03/03 12:56:33;;;;;;;50.40;20.08;;;6.10;99.90;;;;;;5096042;28;20074;-67
2023/03/03 12:59:10;;;;;;;54.85;21.13;;;5.80;99.90;;;;;;5096387;28;20085;-64
2023/03/03 13:02:16;;;;;;;57.65;21.45;;;6.00;99.90;;;;;;5096116;28;20077;-64
2023/03/03 13:04:54;;;;;;;56.08;20.98;;;5.80;99.90;;;;;;5095656;28;20126;-64
2023/03/03 13:07:28;;;;;;;61.47;20.45;;;5.40;99.90;;;;;;5095783;28;20106;-64
2023/03/03 13:10:26;;;;;;;58.47;21.17;;;5.50;99.90;;;;;;5095999;28;20020;-64
2023/03/03 13:13:14;;;;;;;55.60;20.63;;;5.70;99.90;;;;;;5095918;28;20470;-64
2023/03/03 13:15:52;;;;;;;63.83;22.25;;;6.00;99.90;;;;;;5095956;28;20032;-64
2023/03/03 13:18:47;;;;;;;55.83;20.20;;;6.00;99.90;;;;;;5095770;28;20043;-64
2023/03/03 13:21:38;;;;;;;57.35;21.40;;;5.80;99.90;;;;;;5095463;28;20035;-64